Terminal Aerodrome Forecast
Issued by NWS Twin Cities, MN

Home | Current Version | Previous Version | Graphics & Text | Print | Product List | Glossary On
Versions: 1 2 3 4 5 6 7 8 9 10 11 12 13 14 15 16 17 18 19 20 21 22 23 24 25 26 27 28 29 30 31
000
FTUS43 KMPX 240814 AAB
TAFMSP
TAF AMD
KMSP 240814Z 2408/2512 11006KT 5SM -SHRA BR VCTS SCT012 OVC035CB
     FM240930 06006KT 2SM -RA BR BKN008 OVC015
     FM241200 02010KT 4SM -RA BR OVC008
     FM241800 01012KT P6SM VCSH OVC012
     FM242200 03013KT P6SM OVC022=

USA.gov is the U.S. government's official web portal to all federal, state and local government web resources and services.